Καλώς ήλθατε στην Fly Ecuador Virtual

Fly Ecuador Virtual es una organización creada con el fin de brindar una plataforma que permita a los pilotos virtuales, principalmente ecuatorianos, tener un lugar donde registrar sus horas de vuelo, sus certificados de conocimiento adquiridos, las rutas que han volado y los destinos que han visitado. Así mismo, se busca ayudar a todos los pilotos a expandir su conocimiento sobre el mundo de la aviación real y virtual por medio de publicaciones, foros y cursos en línea.

A diferencia de las aerolíneas virtuales tradicionales, Fly Ecuador Virtual no simula las operaciones de una aerolínea del mundo real en específico. Un miembro de Fly Ecuador Virtual tiene toda la libertad de volar cualquier aeronave que opere en el espacio aéreo ecuatoriano real, en cualquier ruta, sea esta nacional o internacional, IFR o VFR, aeronaves monomotor, multimotor o helicópteros. Todo esto con el objetivo de expandir las operaciones virtuales dentro del espacio aéreo ecuatoriano, creando una comunidad en la que se compartan conocimientos y experiencias que beneficien a todos sus integrantes.

El crecimiento de Fly Ecuador Virtual depende de la participación conjunta de todos sus miembros, por este motivo se incentiva la participación en línea a través de los diferentes medios descritos más adelante en este sitio web.

 ΣΤΑΤΙΣΤΙΚΑ

Πιλότοι 77
Αεροσκάφη στον στόλο 0
Διαδρομές 0
Συνολικές ώρες: 10517.24
Πτήσεις Συνολικά 1688
Πτήσεις Τακτικές 0
Πτήσεις Charter 1735
% Πτήσεις Τακτικές 0.00 %

 ΤΕΛΕΥΤΑΙΕΣ ΠΤΗΣΕΙΣ

CallsignΠιλότοςΑναχώρησηΆφιξηΗμερομηνίαΏρες Πτήσης
ECU018Luis Heredia  SEGU  SEQM 2018-12-09 0.47
ECU024Arturo Carvajal  SVMI  SEQM 2018-12-09 2.18
ECU018Luis Heredia  SEGU  SEQM 2018-11-25 0.59
ECU024Arturo Carvajal  SEGU  SEQM 2018-11-25 0.54
ECU024Arturo Carvajal  SEGS  MRLB 2018-11-11 1.99

 ΝΕΩΤΕΡΟΣ ΠΙΛΟΤΟΣ

ΠιλότοςΕντάχθηκε
ECU087-Sahid Muñoz2018-06-02
ECU083-diego trujillo2017-12-18
ECU081-Carlos Torres Vasquez2017-12-06
ECU080-Rolando Soria2017-11-07
ECU084-YORLI MORALES2017-10-30

 Consultar METAR

METAR
SEGU - José Joaquín de Olmedo International Airport, Guayaquil, ECU
Distance from station: N 0mi, 0km
Updated: Wed, 12-Dec-2018 4:00am PST
Overcast
Overcast
 Wind from SSW
Wind: SSW 10 mph , 17 km/h
Temperature: 75°F , 24°C
Dew Point: 72°F , 22°C
Humidity: 89%
Barometer: 29.88 inHg , 1012 hPa
Clouds: Overcast
Visibility: 6 miles , 10 km
Cloud details: Mostly Cloudy 3300 ft
Overcast 10000 ft
2018/12/12 12:00 SEGU 121200Z 21009KT 9999 BKN033 OVC100 24/22 Q1012 NOSIG RMK A2989
 
SEQM - Aeropuerto Internacional Mariscal Sucre, ECU
Distance from station: NE 120mi, 200km
Updated: Wed, 12-Dec-2018 4:08am PST
Patches of fog, Partly cloudy
Patches of fog, Partly cloudy
 Wind from varies
Wind: varies 2 mph , 4 km/h
Temperature: 52°F , 11°C
Dew Point: 52°F , 11°C
Humidity: 100%
Barometer: 30.33 inHg , 1027 hPa
Summary: Patches of Fog
Clouds: Partly Cloudy
Visibility: 1 mile , 2 km
Cloud details: Partly Cloudy 500 ft
Partly Cloudy 1600 ft
2018/12/12 12:08 SEQM 121208Z VRB02KT 2000 R36/0900 BCFG SCT005 SCT016 11/11 Q1027 BECMG TL1240 9999 RMK A3035
 
SECU - Mariscal Lamar Airpor, ECU
Distance from station: ENE 80mi, 120km
Updated: Wed, 12-Dec-2018 4:00am PST
Patches of fog, Mostly cloudy
Patches of fog, Mostly cloudy
 Wind from E
Wind: E 2 mph , 4 km/h
Temperature: 54°F , 12°C
Dew Point: 54°F , 12°C
Humidity: 100%
Barometer: 30.36 inHg , 1028 hPa
Summary: Patches of Fog
Clouds: Mostly Cloudy
Visibility: 4 miles , 6 km
Cloud details: Partly Cloudy 500 ft
Mostly Cloudy 3000 ft
2018/12/12 12:00 SECU 121200Z 09002KT 6000 BCFG SCT005 BKN030 12/12 Q1028
 
SELT - Cotopaxi International Airport, ECU
Distance from station: NW 21mi, 34km
Updated: Wed, 12-Dec-2018 4:00am PST
Mostly Cloudy
Mostly Cloudy
 Wind from S
Wind: S 9 mph , 15 km/h
Temperature: 52°F , 11°C
Dew Point: 50°F , 10°C
Humidity: 94%
Barometer: 30.45 inHg , 1031 hPa
Clouds: Mostly Cloudy
Visibility: 6 miles , 10 km
Cloud details: Partly Cloudy 1000 ft
Mostly Cloudy 3000 ft
2018/12/12 12:00 SELT 121200Z 18008KT 9999 SCT010 BKN030 11/10 Q1031
 
SEMT - Eloy Alfaro International Airport, ECU
Distance from station: SSE 70mi, 100km
Updated: Wed, 12-Dec-2018 4:00am PST
Overcast
Overcast
 Wind from SW
Wind: SW 7 mph , 11 km/h
Temperature: 75°F , 24°C
Dew Point: 72°F , 22°C
Humidity: 89%
Barometer: 29.91 inHg , 1013 hPa
Clouds: Overcast
Visibility: 6 miles , 10 km
Cloud details: Overcast 1600 ft
2018/12/12 12:00 SEMT 121200Z 22006KT 9999 OVC016 24/22 Q1013 RMK A2992

Metar display script from Saratoga-Weather.org

 NOTAMS

NOTAMΗμερομηνία



Fly Ecuador Virtual 2018 | System by VAM